Time;durP1;ratioP1;P1;durP2;ratioP2;P2;SDS_P1;SDS_P2;PMS_P1;PMS_P2;Temp;Humidity;BMP_temperature;BMP_pressure;BME280_temperature;BME280_humidity;BME280_pressure;Samples;Min_cycle;Max_cycle;Signal;HPM_P1;HPM_P2
2023/01/31 00:01:35;;;;;;;5.22;4.93;;;-1.70;99.90;;;;;;6123552;23;20458;-77
2023/01/31 00:04:06;;;;;;;4.78;4.47;;;-1.60;99.90;;;;;;6122785;23;20376;-76
2023/01/31 00:06:42;;;;;;;4.45;4.25;;;-1.60;99.90;;;;;;6097281;23;20372;-77
2023/01/31 00:09:10;;;;;;;4.55;4.32;;;-1.80;99.90;;;;;;6097452;23;20403;-77
2023/01/31 00:11:38;;;;;;;4.22;4.00;;;-1.80;99.90;;;;;;6097766;23;20707;-77
2023/01/31 00:14:06;;;;;;;4.40;4.20;;;-1.80;99.90;;;;;;6097006;23;20716;-76
2023/01/31 00:16:33;;;;;;;4.55;4.35;;;-1.80;99.90;;;;;;6097851;23;20447;-77
2023/01/31 00:19:01;;;;;;;4.65;4.45;;;-2.00;99.90;;;;;;6097222;23;20407;-76
2023/01/31 00:21:29;;;;;;;4.30;4.10;;;-2.00;99.90;;;;;;6097366;23;20380;-76
2023/01/31 00:23:57;;;;;;;4.70;4.40;;;-1.90;99.90;;;;;;6097001;23;20387;-76
2023/01/31 00:26:30;;;;;;;4.80;4.50;;;-1.90;99.90;;;;;;6097491;23;20379;-77
2023/01/31 00:29:02;;;;;;;4.63;4.32;;;-2.00;99.90;;;;;;6096783;23;20439;-77
2023/01/31 00:31:31;;;;;;;4.63;4.40;;;-1.90;99.90;;;;;;6097394;23;20500;-76
2023/01/31 00:33:58;;;;;;;4.65;4.40;;;-1.90;99.90;;;;;;6122581;23;20453;-76
2023/01/31 00:36:33;;;;;;;4.95;4.65;;;-1.90;99.90;;;;;;6122993;23;20404;-76
2023/01/31 00:39:02;;;;;;;4.82;4.53;;;-1.90;99.90;;;;;;6096565;23;20372;-76
2023/01/31 00:41:30;;;;;;;4.85;4.55;;;-1.80;99.90;;;;;;6097508;23;20368;-76
2023/01/31 00:43:57;;;;;;;4.63;4.32;;;-1.80;99.90;;;;;;6096748;23;20376;-76
2023/01/31 00:46:24;;;;;;;5.10;4.80;;;-1.80;99.90;;;;;;6098145;23;20399;-76
2023/01/31 00:48:52;;;;;;;4.60;4.40;;;-1.80;99.90;;;;;;6097494;23;20391;-76
2023/01/31 00:51:19;;;;;;;4.60;4.35;;;-1.80;99.90;;;;;;6122928;23;20368;-77
2023/01/31 00:53:47;;;;;;;4.60;4.30;;;-1.80;99.90;;;;;;6096390;23;20500;-76
2023/01/31 00:56:18;;;;;;;4.57;4.35;;;-1.70;99.90;;;;;;6097021;23;22174;-76
2023/01/31 00:58:45;;;;;;;4.22;4.03;;;-1.80;99.90;;;;;;6122628;23;20692;-76
2023/01/31 01:01:15;;;;;;;4.80;4.53;;;-1.90;99.90;;;;;;6096796;23;20367;-76
2023/01/31 01:03:44;;;;;;;4.70;4.40;;;-2.10;99.90;;;;;;6097232;23;20371;-76
2023/01/31 01:06:12;;;;;;;5.03;4.72;;;-2.20;99.90;;;;;;6096480;23;20412;-78
2023/01/31 01:08:40;;;;;;;4.55;4.35;;;-2.20;99.90;;;;;;6097424;23;20423;-75
2023/01/31 01:11:22;;;;;;;4.90;4.60;;;-2.20;99.90;;;;;;6096588;23;20444;-76
2023/01/31 01:13:50;;;;;;;5.07;4.78;;;-2.20;99.90;;;;;;6123152;23;20376;-75
2023/01/31 01:16:20;;;;;;;5.20;4.90;;;-2.20;99.90;;;;;;6096628;23;20843;-76
2023/01/31 01:18:49;;;;;;;5.50;5.10;;;-2.20;99.90;;;;;;6097194;23;20716;-76
2023/01/31 01:21:21;;;;;;;5.70;5.30;;;-2.20;99.90;;;;;;6096519;23;20380;-76
2023/01/31 01:23:49;;;;;;;5.90;5.50;;;-2.20;99.90;;;;;;6097749;23;20882;-76
2023/01/31 01:26:19;;;;;;;5.18;4.88;;;-2.20;99.90;;;;;;6096421;23;20379;-76
2023/01/31 01:28:47;;;;;;;4.75;4.55;;;-2.20;99.90;;;;;;6097444;23;20375;-75
2023/01/31 01:31:15;;;;;;;5.20;4.90;;;-2.20;99.90;;;;;;6121894;23;20823;-75
2023/01/31 01:33:43;;;;;;;5.03;4.73;;;-2.30;99.90;;;;;;6097541;23;20398;-76
2023/01/31 01:36:12;;;;;;;5.10;4.80;;;-2.30;99.90;;;;;;6096157;23;20372;-76
2023/01/31 01:38:40;;;;;;;5.28;4.97;;;-2.20;99.90;;;;;;6097573;23;20380;-76
2023/01/31 01:41:09;;;;;;;5.28;4.97;;;-2.20;99.90;;;;;;6095639;23;20386;-76
2023/01/31 01:43:40;;;;;;;5.45;5.15;;;-2.10;99.90;;;;;;6097358;23;20709;-76
2023/01/31 01:46:09;;;;;;;5.47;5.18;;;-2.10;99.90;;;;;;6096259;23;20426;-76
2023/01/31 01:48:37;;;;;;;5.10;4.80;;;-2.10;99.90;;;;;;6095898;23;20371;-76
2023/01/31 01:51:06;;;;;;;5.47;5.18;;;-2.10;99.90;;;;;;6095876;23;20372;-75
2023/01/31 01:53:38;;;;;;;4.87;4.57;;;-2.10;99.90;;;;;;6096370;23;20375;-75
2023/01/31 01:56:12;;;;;;;5.45;5.15;;;-2.00;99.90;;;;;;6094814;23;20394;-75
2023/01/31 01:59:15;;;;;;;4.85;4.55;;;-2.10;99.90;;;;;;6096772;23;20476;-76
2023/01/31 02:01:43;;;;;;;5.38;5.07;;;-2.10;99.90;;;;;;6077403;23;20415;-77
2023/01/31 02:59:34;;;;;;;4.40;4.10;;;-2.60;99.90;;;;;;6106628;23;20728;-75
2023/01/31 03:02:03;;;;;;;4.47;4.20;;;-2.60;99.90;;;;;;6095949;23;20379;-75
2023/01/31 03:04:32;;;;;;;4.47;4.22;;;-2.70;99.90;;;;;;6089562;23;20389;-75
2023/01/31 03:07:07;;;;;;;4.22;4.03;;;-2.70;99.90;;;;;;6067320;23;20373;-78
2023/01/31 03:09:35;;;;;;;4.05;3.85;;;-2.70;99.90;;;;;;6066018;23;20397;-76
2023/01/31 03:12:24;;;;;;;4.80;4.50;;;-2.70;99.90;;;;;;6066859;23;20822;-74
2023/01/31 03:14:56;;;;;;;3.90;3.70;;;-2.70;99.90;;;;;;6089731;23;20453;-75
2023/01/31 03:17:52;;;;;;;4.47;4.27;;;-2.70;99.90;;;;;;6067037;23;20404;-76
2023/01/31 03:20:43;;;;;;;4.57;4.30;;;-2.70;99.90;;;;;;6089589;23;20458;-75
2023/01/31 03:23:17;;;;;;;4.75;4.45;;;-2.70;99.90;;;;;;6056262;23;20771;-76
2023/01/31 03:25:47;;;;;;;4.10;3.90;;;-2.70;99.90;;;;;;6067978;23;20381;-75
2023/01/31 03:28:19;;;;;;;4.32;4.13;;;-2.70;99.90;;;;;;6066946;23;20441;-76
2023/01/31 03:31:24;;;;;;;4.35;4.13;;;-2.70;99.90;;;;;;6069961;23;20381;-77
2023/01/31 03:33:54;;;;;;;4.68;4.43;;;-2.80;99.90;;;;;;6096184;23;20377;-75
2023/01/31 03:36:42;;;;;;;4.00;3.80;;;-2.90;99.90;;;;;;6124538;23;20392;-77
2023/01/31 03:39:23;;;;;;;4.60;4.38;;;-2.90;99.90;;;;;;6122159;23;20371;-76
2023/01/31 03:42:01;;;;;;;4.67;4.47;;;-2.90;99.90;;;;;;6097728;23;20473;-75
2023/01/31 03:44:44;;;;;;;4.45;4.15;;;-2.90;99.90;;;;;;6098614;23;20383;-75
2023/01/31 03:47:20;;;;;;;4.38;4.18;;;-2.90;99.90;;;;;;6097784;23;20372;-75
2023/01/31 03:49:50;;;;;;;4.53;4.32;;;-2.90;99.90;;;;;;6097699;23;20380;-75
2023/01/31 03:52:28;;;;;;;4.60;4.30;;;-2.80;99.90;;;;;;6097873;23;20376;-75
2023/01/31 03:55:04;;;;;;;4.60;4.35;;;-2.80;99.90;;;;;;6097507;23;20412;-75
2023/01/31 03:57:36;;;;;;;4.28;4.07;;;-2.70;99.90;;;;;;6096294;23;20376;-75
2023/01/31 04:00:08;;;;;;;4.00;3.80;;;-2.80;99.90;;;;;;6073560;23;20439;-76
2023/01/31 04:02:37;;;;;;;3.88;3.67;;;-2.80;99.90;;;;;;6098718;23;20430;-76
2023/01/31 04:05:09;;;;;;;3.63;3.42;;;-2.80;99.90;;;;;;6073675;23;20693;-76
2023/01/31 04:07:36;;;;;;;4.00;3.80;;;-2.70;99.90;;;;;;6097645;23;20407;-76
2023/01/31 04:10:14;;;;;;;3.65;3.45;;;-2.70;99.90;;;;;;6097435;23;20864;-75
2023/01/31 04:12:44;;;;;;;4.47;4.18;;;-2.80;99.90;;;;;;6076458;23;20386;-75
2023/01/31 04:15:12;;;;;;;4.43;4.22;;;-2.80;99.90;;;;;;6097337;23;20379;-76
2023/01/31 04:17:39;;;;;;;4.13;3.93;;;-2.90;99.90;;;;;;6098210;23;20944;-75
2023/01/31 04:20:07;;;;;;;4.07;3.88;;;-2.80;99.90;;;;;;6097515;23;20380;-75
2023/01/31 04:22:34;;;;;;;4.15;3.95;;;-2.90;99.90;;;;;;6098347;23;20759;-75
2023/01/31 04:25:00;;;;;;;4.03;3.83;;;-2.90;99.90;;;;;;6122726;23;20463;-76
2023/01/31 04:27:30;;;;;;;4.63;4.32;;;-2.90;99.90;;;;;;6098814;23;20379;-76
2023/01/31 04:29:56;;;;;;;4.25;4.00;;;-3.00;99.90;;;;;;6097173;23;20386;-75
2023/01/31 04:32:23;;;;;;;4.53;4.32;;;-3.00;99.90;;;;;;6098261;23;20695;-75
2023/01/31 04:34:52;;;;;;;4.03;3.83;;;-3.00;99.90;;;;;;6098024;23;20391;-76
2023/01/31 04:37:19;;;;;;;4.32;4.13;;;-3.00;99.90;;;;;;6096691;23;20686;-75
2023/01/31 04:39:48;;;;;;;4.05;3.85;;;-3.20;99.90;;;;;;6097781;23;20752;-76
2023/01/31 04:42:15;;;;;;;4.77;4.47;;;-3.20;99.90;;;;;;6097202;23;20439;-77
2023/01/31 04:44:42;;;;;;;4.45;4.25;;;-3.10;99.90;;;;;;6097949;23;20418;-75
2023/01/31 04:47:09;;;;;;;4.40;4.20;;;-3.20;99.90;;;;;;6096805;23;20380;-76
2023/01/31 04:49:36;;;;;;;4.32;4.13;;;-3.20;99.90;;;;;;6097562;23;20384;-76
2023/01/31 04:52:03;;;;;;;4.40;4.20;;;-3.20;99.90;;;;;;6095946;23;20388;-76
2023/01/31 04:54:30;;;;;;;4.47;4.28;;;-3.20;99.90;;;;;;6097535;23;20883;-76
2023/01/31 04:56:57;;;;;;;4.47;4.28;;;-3.20;99.90;;;;;;6097348;23;20385;-77
2023/01/31 04:59:24;;;;;;;4.15;3.95;;;-3.20;99.90;;;;;;6123617;23;20740;-76
2023/01/31 05:01:51;;;;;;;4.50;4.30;;;-3.20;99.90;;;;;;6097762;23;20379;-76
2023/01/31 05:04:20;;;;;;;4.32;4.13;;;-3.20;99.90;;;;;;6096658;23;20372;-76
2023/01/31 05:06:49;;;;;;;5.07;4.78;;;-3.20;99.90;;;;;;6096924;23;22413;-75
2023/01/31 05:09:16;;;;;;;5.07;4.78;;;-3.20;99.90;;;;;;6120789;23;20379;-75
2023/01/31 05:11:43;;;;;;;4.20;4.00;;;-3.20;99.90;;;;;;6097748;23;20886;-75
2023/01/31 05:14:12;;;;;;;4.97;4.67;;;-3.10;99.90;;;;;;6096470;23;20514;-76
2023/01/31 05:16:40;;;;;;;4.90;4.60;;;-3.20;99.90;;;;;;6097869;23;20380;-75
2023/01/31 05:19:07;;;;;;;4.93;4.70;;;-3.10;99.90;;;;;;6097050;23;20426;-75
2023/01/31 05:21:53;;;;;;;5.40;5.10;;;-3.10;99.90;;;;;;6122996;23;20712;-76
2023/01/31 05:24:22;;;;;;;5.90;5.60;;;-3.10;99.90;;;;;;6097740;23;20372;-76
2023/01/31 05:26:51;;;;;;;5.55;5.25;;;-2.90;99.90;;;;;;6097871;23;20704;-75
2023/01/31 05:29:20;;;;;;;5.15;4.85;;;-2.90;99.90;;;;;;6122568;23;20395;-76
2023/01/31 05:31:52;;;;;;;4.57;4.35;;;-2.90;99.90;;;;;;6096689;23;20375;-75
2023/01/31 05:34:20;;;;;;;4.38;4.18;;;-2.90;99.90;;;;;;6073010;23;20382;-75
2023/01/31 05:36:48;;;;;;;4.53;4.28;;;-2.90;99.90;;;;;;6096935;23;20773;-76
2023/01/31 05:39:20;;;;;;;4.00;3.80;;;-2.90;99.90;;;;;;6097559;23;20708;-76
2023/01/31 05:41:47;;;;;;;4.22;4.03;;;-2.90;99.90;;;;;;6097514;23;20380;-75
2023/01/31 05:44:17;;;;;;;4.10;3.90;;;-2.90;99.90;;;;;;6095948;23;20384;-76
2023/01/31 05:46:44;;;;;;;4.40;4.20;;;-3.00;99.90;;;;;;6096295;23;20380;-76
2023/01/31 05:49:12;;;;;;;4.10;3.83;;;-3.10;99.90;;;;;;6096714;23;20379;-76
2023/01/31 05:51:39;;;;;;;3.63;3.42;;;-3.20;99.90;;;;;;6096834;23;20728;-76
2023/01/31 05:54:07;;;;;;;3.60;3.40;;;-3.30;99.90;;;;;;6096073;23;20407;-76
2023/01/31 05:56:34;;;;;;;3.80;3.57;;;-3.30;99.90;;;;;;6097553;23;20379;-74
2023/01/31 05:59:09;;;;;;;3.55;3.35;;;-3.30;99.90;;;;;;6097895;23;20399;-76
2023/01/31 06:01:36;;;;;;;3.27;3.07;;;-3.30;99.90;;;;;;6097124;23;20464;-76
2023/01/31 06:04:05;;;;;;;3.70;3.50;;;-3.40;99.90;;;;;;6096346;23;20402;-78
2023/01/31 06:06:32;;;;;;;3.80;3.60;;;-3.50;99.90;;;;;;6097597;23;20430;-77
2023/01/31 06:08:59;;;;;;;3.40;3.20;;;-3.50;99.90;;;;;;6097238;23;20388;-76
2023/01/31 06:11:26;;;;;;;3.63;3.42;;;-3.50;99.90;;;;;;6096682;23;20368;-75
2023/01/31 06:13:56;;;;;;;3.30;3.13;;;-3.50;99.90;;;;;;6096910;23;20376;-76
2023/01/31 06:16:24;;;;;;;3.40;3.20;;;-3.50;99.90;;;;;;6094915;23;20376;-76
2023/01/31 06:18:51;;;;;;;3.10;2.90;;;-3.60;99.90;;;;;;6097789;23;20759;-75
2023/01/31 06:21:18;;;;;;;3.75;3.55;;;-3.60;99.90;;;;;;6096726;23;20379;-76
2023/01/31 06:23:46;;;;;;;3.70;3.50;;;-3.70;99.90;;;;;;6122525;23;20407;-75
2023/01/31 06:26:13;;;;;;;3.72;3.53;;;-3.60;99.90;;;;;;6096018;23;20573;-76
2023/01/31 06:28:40;;;;;;;3.30;3.10;;;-3.70;99.90;;;;;;6097638;23;20367;-76
2023/01/31 06:31:09;;;;;;;3.83;3.63;;;-3.60;99.90;;;;;;6096260;23;20413;-75
2023/01/31 06:33:37;;;;;;;3.57;3.37;;;-3.60;99.90;;;;;;6097070;23;20382;-75
2023/01/31 06:36:14;;;;;;;3.42;3.22;;;-3.60;99.90;;;;;;6097775;23;20396;-75
2023/01/31 06:38:48;;;;;;;3.53;3.33;;;-3.60;99.90;;;;;;6122045;23;20748;-76
2023/01/31 06:41:17;;;;;;;3.47;3.30;;;-3.60;99.90;;;;;;6095378;23;20388;-76
2023/01/31 06:43:44;;;;;;;3.45;3.25;;;-3.60;99.90;;;;;;6096610;23;20383;-76
2023/01/31 06:46:12;;;;;;;4.00;3.80;;;-3.50;99.90;;;;;;6095950;23;20450;-75
2023/01/31 06:48:39;;;;;;;3.70;3.50;;;-3.60;99.90;;;;;;6097256;23;20488;-75
2023/01/31 06:51:06;;;;;;;3.90;3.70;;;-3.60;99.90;;;;;;6097122;23;20380;-75
2023/01/31 06:53:33;;;;;;;3.73;3.53;;;-3.70;99.90;;;;;;6096352;23;20443;-76
2023/01/31 06:56:00;;;;;;;3.90;3.70;;;-3.70;99.90;;;;;;6096918;23;20858;-76
2023/01/31 06:58:27;;;;;;;3.55;3.35;;;-3.60;99.90;;;;;;6095557;23;20379;-76
2023/01/31 07:00:54;;;;;;;3.67;3.47;;;-3.70;99.90;;;;;;6096623;23;20375;-76
2023/01/31 07:03:20;;;;;;;3.45;3.25;;;-3.70;99.90;;;;;;6096921;23;20760;-76
2023/01/31 07:05:47;;;;;;;3.70;3.50;;;-3.70;99.90;;;;;;6098739;23;20395;-76
2023/01/31 07:08:14;;;;;;;3.83;3.63;;;-3.70;99.90;;;;;;6097874;23;20443;-75
2023/01/31 07:10:41;;;;;;;3.80;3.60;;;-3.80;99.90;;;;;;6098793;23;20431;-75
2023/01/31 07:13:08;;;;;;;3.90;3.70;;;-3.70;99.90;;;;;;6099172;23;20379;-76
2023/01/31 07:15:35;;;;;;;4.03;3.83;;;-3.80;99.90;;;;;;6097201;23;20442;-74
2023/01/31 07:18:02;;;;;;;4.60;4.25;;;-3.80;99.90;;;;;;6098505;23;20756;-76
2023/01/31 07:20:29;;;;;;;4.22;4.03;;;-3.80;99.90;;;;;;6096964;23;20375;-76
2023/01/31 07:22:57;;;;;;;4.35;4.15;;;-3.70;99.90;;;;;;6099210;23;20438;-75
2023/01/31 07:25:29;;;;;;;5.13;4.82;;;-3.70;99.90;;;;;;6097572;23;20398;-75
2023/01/31 07:27:56;;;;;;;7.03;6.60;;;-3.70;99.90;;;;;;6123805;23;20438;-76
2023/01/31 07:30:22;;;;;;;7.47;7.00;;;-3.70;99.90;;;;;;6098208;23;20376;-75
2023/01/31 07:32:49;;;;;;;6.97;6.57;;;-3.70;99.90;;;;;;6098033;23;20879;-76
2023/01/31 07:35:17;;;;;;;6.63;6.28;;;-3.60;99.90;;;;;;6098201;23;20376;-77
2023/01/31 07:37:45;;;;;;;5.72;5.32;;;-3.60;99.90;;;;;;6096680;23;20372;-76
2023/01/31 07:40:14;;;;;;;5.38;5.07;;;-3.50;99.90;;;;;;6098585;23;20430;-76
2023/01/31 07:42:41;;;;;;;5.20;4.90;;;-3.40;99.90;;;;;;6097224;23;20383;-75
2023/01/31 07:45:11;;;;;;;4.25;4.05;;;-3.30;99.90;;;;;;6074194;23;20372;-77
2023/01/31 07:47:49;;;;;;;4.57;4.28;;;-3.30;99.90;;;;;;6098892;23;20398;-77
2023/01/31 07:50:16;;;;;;;4.68;4.38;;;-3.10;99.90;;;;;;6097996;23;20380;-77
2023/01/31 07:52:43;;;;;;;5.10;4.80;;;-2.90;99.90;;;;;;6097341;23;20376;-77
2023/01/31 07:55:11;;;;;;;4.63;4.32;;;-2.60;99.90;;;;;;6098105;23;20902;-75
2023/01/31 07:57:38;;;;;;;6.35;5.93;;;-2.30;99.90;;;;;;6096986;23;20381;-76
2023/01/31 08:03:31;;;;;;;6.75;6.32;;;-1.90;99.90;;;;;;6085727;23;20397;-76
2023/01/31 08:05:38;;;;;;;5.50;5.10;;;-1.20;99.90;;;;;;6093718;23;20386;-75
2023/01/31 08:08:09;;;;;;;5.78;5.47;;;-0.90;99.90;;;;;;6069665;23;20381;-74
2023/01/31 08:10:39;;;;;;;5.70;5.40;;;-0.60;99.90;;;;;;6045872;23;20435;-76
2023/01/31 08:13:07;;;;;;;5.23;4.93;;;-0.40;99.90;;;;;;6094470;23;20430;-75
2023/01/31 08:15:33;;;;;;;4.88;4.57;;;-0.10;99.90;;;;;;6067997;23;20481;-76
2023/01/31 08:18:01;;;;;;;5.20;4.90;;;0.20;99.90;;;;;;6069270;23;20385;-76
2023/01/31 08:20:32;;;;;;;5.38;5.07;;;0.50;99.90;;;;;;6069289;23;20374;-75
2023/01/31 08:22:59;;;;;;;4.95;4.65;;;0.70;99.90;;;;;;6095130;23;20759;-76
2023/01/31 08:25:30;;;;;;;5.10;4.80;;;1.10;99.90;;;;;;6069539;23;20381;-76
2023/01/31 08:27:59;;;;;;;4.10;3.90;;;1.30;99.90;;;;;;6068330;23;20592;-76
2023/01/31 08:30:26;;;;;;;3.97;3.78;;;1.60;99.70;;;;;;6069816;23;20381;-76
2023/01/31 08:32:54;;;;;;;4.70;4.50;;;1.80;98.90;;;;;;6068154;23;20737;-75
2023/01/31 08:35:21;;;;;;;4.85;4.55;;;2.00;96.50;;;;;;6094006;23;20427;-76
2023/01/31 08:37:51;;;;;;;4.45;4.25;;;2.20;95.50;;;;;;6068080;23;20845;-76
2023/01/31 08:40:24;;;;;;;4.80;4.50;;;2.40;94.50;;;;;;6047158;23;20446;-76
2023/01/31 08:42:59;;;;;;;4.97;4.68;;;2.40;92.50;;;;;;6067700;23;20468;-75
2023/01/31 08:45:29;;;;;;;5.32;5.03;;;2.60;92.00;;;;;;6068755;23;20929;-76
2023/01/31 08:48:00;;;;;;;4.50;4.30;;;2.80;91.20;;;;;;6067632;23;20781;-77
2023/01/31 08:50:35;;;;;;;4.28;4.07;;;2.90;90.10;;;;;;6069815;23;20433;-76
2023/01/31 08:53:07;;;;;;;4.80;4.50;;;3.20;88.10;;;;;;6046256;23;20467;-77
2023/01/31 08:55:35;;;;;;;4.90;4.60;;;3.30;86.80;;;;;;6068853;23;20861;-76
2023/01/31 08:58:03;;;;;;;4.35;4.15;;;3.40;86.70;;;;;;6067860;23;20858;-76
2023/01/31 09:00:30;;;;;;;4.72;4.43;;;3.50;86.70;;;;;;6044251;23;20377;-76
2023/01/31 09:03:00;;;;;;;4.20;4.00;;;3.70;86.50;;;;;;6067412;23;20441;-77
2023/01/31 09:05:31;;;;;;;4.45;4.18;;;3.80;85.90;;;;;;6069209;23;20751;-76
2023/01/31 09:07:58;;;;;;;4.13;3.83;;;3.90;85.10;;;;;;6067467;23;20388;-77
2023/01/31 09:10:26;;;;;;;4.53;4.30;;;4.00;84.50;;;;;;6067210;23;20374;-76
2023/01/31 09:12:53;;;;;;;4.30;4.00;;;4.10;83.90;;;;;;6066014;23;20421;-77
2023/01/31 09:15:23;;;;;;;4.00;3.80;;;4.30;83.80;;;;;;6068148;23;20445;-76
2023/01/31 09:17:50;;;;;;;4.07;3.88;;;4.30;82.00;;;;;;6067698;23;20385;-76
2023/01/31 09:20:19;;;;;;;4.40;4.13;;;4.30;81.70;;;;;;6067472;23;20381;-76
2023/01/31 09:22:47;;;;;;;4.10;3.90;;;4.50;80.60;;;;;;6068195;23;20382;-76
2023/01/31 09:25:16;;;;;;;4.00;3.80;;;4.60;78.40;;;;;;6066719;23;20381;-76
2023/01/31 09:27:44;;;;;;;4.10;3.80;;;4.70;78.10;;;;;;6068550;23;20408;-76
2023/01/31 09:30:11;;;;;;;3.80;3.50;;;4.80;77.40;;;;;;6076250;23;20834;-77
2023/01/31 09:32:40;;;;;;;3.35;3.22;;;4.80;76.60;;;;;;6084366;23;20377;-77
2023/01/31 09:35:07;;;;;;;3.67;3.47;;;4.90;77.70;;;;;;6082502;23;20856;-77
2023/01/31 09:37:34;;;;;;;4.07;3.88;;;5.10;77.70;;;;;;6081063;23;20448;-77
2023/01/31 09:40:01;;;;;;;3.95;3.75;;;5.00;75.70;;;;;;6074447;23;20389;-76
2023/01/31 09:42:41;;;;;;;3.80;3.60;;;5.10;74.50;;;;;;6067772;23;20687;-76
2023/01/31 09:45:13;;;;;;;3.67;3.47;;;5.20;73.60;;;;;;6075653;23;20379;-76
2023/01/31 09:47:49;;;;;;;4.15;3.95;;;5.30;74.10;;;;;;6071202;23;20441;-77
2023/01/31 09:50:48;;;;;;;4.13;3.92;;;5.30;74.80;;;;;;6094706;23;20465;-77
2023/01/31 09:53:20;;;;;;;3.92;3.72;;;5.50;74.30;;;;;;6071404;23;20397;-76
2023/01/31 09:56:19;;;;;;;4.07;3.88;;;5.70;72.80;;;;;;6103732;23;20384;-76
2023/01/31 09:59:23;;;;;;;4.20;4.00;;;5.80;72.10;;;;;;6106091;23;20370;-77
2023/01/31 10:02:00;;;;;;;4.40;4.20;;;5.80;71.80;;;;;;6135159;23;20379;-77
2023/01/31 10:05:04;;;;;;;3.90;3.70;;;5.90;70.90;;;;;;6112925;23;20447;-78
2023/01/31 10:08:05;;;;;;;4.10;3.90;;;6.20;71.20;;;;;;6136939;23;20382;-77
2023/01/31 10:10:55;;;;;;;4.03;3.83;;;6.30;70.20;;;;;;6138876;23;20368;-77
2023/01/31 10:13:37;;;;;;;4.00;3.70;;;6.60;68.80;;;;;;6111989;23;20416;-77
2023/01/31 10:16:30;;;;;;;4.13;3.92;;;6.70;67.10;;;;;;6087554;23;20395;-76
2023/01/31 10:19:19;;;;;;;4.22;4.03;;;6.70;66.10;;;;;;6110945;23;20443;-76
2023/01/31 10:21:59;;;;;;;3.75;3.55;;;6.80;65.70;;;;;;6110506;23;20386;-77
2023/01/31 10:24:40;;;;;;;4.20;4.00;;;6.90;66.30;;;;;;6090336;23;20709;-76
2023/01/31 10:27:34;;;;;;;4.10;3.80;;;7.10;65.60;;;;;;6064272;23;20387;-77
2023/01/31 10:30:26;;;;;;;4.03;3.83;;;7.20;64.50;;;;;;6113535;23;20391;-78
2023/01/31 10:33:08;;;;;;;4.10;3.90;;;7.40;63.60;;;;;;6127169;23;20384;-77
2023/01/31 10:35:41;;;;;;;3.95;3.75;;;7.20;62.90;;;;;;6099931;23;20379;-76
2023/01/31 10:38:40;;;;;;;4.30;4.10;;;7.30;62.20;;;;;;6115693;23;20438;-77
2023/01/31 10:41:21;;;;;;;4.07;3.87;;;7.40;63.70;;;;;;6076912;23;20383;-76
2023/01/31 10:44:12;;;;;;;4.00;3.80;;;7.60;62.70;;;;;;6103200;23;20387;-76
2023/01/31 10:46:42;;;;;;;3.90;3.70;;;7.80;60.60;;;;;;6109070;23;20376;-76
2023/01/31 10:49:11;;;;;;;3.60;3.40;;;7.90;60.70;;;;;;6101532;23;20382;-76
2023/01/31 10:52:03;;;;;;;3.70;3.50;;;8.00;58.90;;;;;;6126884;23;20379;-75
2023/01/31 10:54:55;;;;;;;3.33;3.13;;;8.10;59.20;;;;;;6088712;23;20462;-75
2023/01/31 10:57:23;;;;;;;3.50;3.30;;;8.30;58.70;;;;;;6103682;23;20380;-77
2023/01/31 10:59:52;;;;;;;3.40;3.20;;;8.50;58.50;;;;;;6078276;23;20386;-77
2023/01/31 11:02:29;;;;;;;3.40;3.20;;;8.60;57.10;;;;;;6078747;23;20386;-77
2023/01/31 11:05:22;;;;;;;2.47;2.38;;;8.60;55.50;;;;;;6080889;23;20371;-77
2023/01/31 11:07:50;;;;;;;2.38;2.28;;;8.40;54.10;;;;;;6100949;23;20387;-77
2023/01/31 11:10:28;;;;;;;2.20;2.10;;;8.70;53.20;;;;;;6126266;23;20699;-77
2023/01/31 11:13:09;;;;;;;1.90;1.80;;;8.80;52.50;;;;;;6101528;23;20443;-77
2023/01/31 11:15:42;;;;;;;2.00;1.90;;;9.00;51.50;;;;;;6135892;23;20390;-77
2023/01/31 11:18:47;;;;;;;2.10;2.00;;;9.10;50.90;;;;;;6086574;23;20388;-77
2023/01/31 11:21:29;;;;;;;1.90;1.80;;;9.20;50.50;;;;;;6064763;23;20380;-77
2023/01/31 11:24:15;;;;;;;1.97;1.87;;;9.30;50.10;;;;;;6103235;23;20388;-77
2023/01/31 11:26:58;;;;;;;1.83;1.73;;;9.40;49.30;;;;;;6080193;23;20756;-77
2023/01/31 11:29:31;;;;;;;2.00;1.90;;;9.60;49.10;;;;;;6127381;23;20384;-76
2023/01/31 11:32:11;;;;;;;2.15;2.05;;;9.80;49.80;;;;;;6127417;23;20415;-77
2023/01/31 11:35:06;;;;;;;2.00;1.90;;;10.00;50.00;;;;;;6080215;23;20384;-77
2023/01/31 11:37:33;;;;;;;1.42;1.40;;;10.00;48.20;;;;;;6090640;23;20387;-77
2023/01/31 11:40:25;;;;;;;1.88;1.77;;;10.10;48.40;;;;;;6089754;23;20862;-77
2023/01/31 11:43:18;;;;;;;1.60;1.50;;;10.30;47.70;;;;;;6107483;23;20470;-77
2023/01/31 11:45:58;;;;;;;1.20;1.20;;;10.40;46.50;;;;;;6098315;23;20380;-77
2023/01/31 11:48:46;;;;;;;1.30;1.20;;;10.50;44.80;;;;;;6094833;23;20391;-77
2023/01/31 11:51:30;;;;;;;1.17;1.13;;;10.40;43.50;;;;;;6107712;23;20418;-77
2023/01/31 11:53:58;;;;;;;1.02;1.02;;;10.60;44.40;;;;;;6126270;23;20415;-77
2023/01/31 11:56:33;;;;;;;1.40;1.30;;;10.90;44.30;;;;;;6113806;23;20446;-77
2023/01/31 11:59:06;;;;;;;1.50;1.40;;;10.90;44.00;;;;;;6101032;23;20398;-77
2023/01/31 12:01:42;;;;;;;1.70;1.60;;;11.10;44.80;;;;;;6112754;23;20406;-77
2023/01/31 12:04:30;;;;;;;1.52;1.42;;;11.20;44.70;;;;;;6110955;23;20441;-78
2023/01/31 12:06:58;;;;;;;1.40;1.30;;;11.20;44.20;;;;;;6078314;23;20394;-77
2023/01/31 12:09:31;;;;;;;1.60;1.50;;;11.20;43.90;;;;;;6128764;23;20405;-77
2023/01/31 12:12:02;;;;;;;1.52;1.42;;;11.20;43.70;;;;;;6134561;23;20712;-77
2023/01/31 12:14:40;;;;;;;0.90;0.90;;;11.50;43.90;;;;;;6111365;23;20386;-78
2023/01/31 12:17:14;;;;;;;1.17;1.13;;;11.70;41.00;;;;;;6082485;23;20380;-77
2023/01/31 12:20:19;;;;;;;1.52;1.42;;;11.90;40.70;;;;;;6091800;23;20373;-77
2023/01/31 12:23:10;;;;;;;1.88;1.77;;;11.90;41.00;;;;;;6110602;23;20387;-78
2023/01/31 12:26:29;;;;;;;2.17;2.08;;;12.10;42.00;;;;;;6106583;23;20455;-78
2023/01/31 12:29:18;;;;;;;2.20;2.05;;;12.00;43.00;;;;;;6018413;23;20471;-77
2023/01/31 12:32:25;;;;;;;2.40;2.30;;;12.10;43.20;;;;;;6129516;23;20982;-77
2023/01/31 12:35:31;;;;;;;2.37;2.27;;;12.00;43.30;;;;;;6111998;23;20360;-77
2023/01/31 12:38:31;;;;;;;2.40;2.30;;;12.20;43.70;;;;;;6091550;23;20372;-77
2023/01/31 12:41:20;;;;;;;2.72;2.53;;;12.20;42.90;;;;;;6114366;23;20892;-77
2023/01/31 12:44:24;;;;;;;2.60;2.50;;;12.20;44.10;;;;;;6111342;23;20390;-78
2023/01/31 12:47:12;;;;;;;2.60;2.50;;;12.20;43.40;;;;;;6074195;23;20387;-77
2023/01/31 12:49:49;;;;;;;2.30;2.20;;;12.40;44.20;;;;;;6133311;23;20376;-77
2023/01/31 12:52:47;;;;;;;2.33;2.22;;;12.40;43.30;;;;;;6096705;23;20368;-77
2023/01/31 12:55:45;;;;;;;1.92;1.83;;;12.40;43.00;;;;;;6107320;23;20430;-77
2023/01/31 12:58:43;;;;;;;1.90;1.80;;;12.60;42.40;;;;;;6111647;23;20732;-77
2023/01/31 13:01:34;;;;;;;1.90;1.80;;;12.50;42.20;;;;;;5970139;23;3279608;-77
2023/01/31 13:04:29;;;;;;;1.70;1.60;;;12.70;42.00;;;;;;6116637;23;20384;-77
2023/01/31 13:07:01;;;;;;;1.80;1.70;;;12.90;42.50;;;;;;6140033;23;20505;-77
2023/01/31 13:09:35;;;;;;;2.07;1.97;;;12.80;42.10;;;;;;6114769;23;20364;-78
2023/01/31 13:12:06;;;;;;;2.15;2.05;;;12.30;42.20;;;;;;6099354;23;20874;-77
2023/01/31 13:14:48;;;;;;;1.87;1.77;;;12.20;43.00;;;;;;6110821;23;20476;-77
2023/01/31 13:17:21;;;;;;;2.30;2.13;;;12.40;42.40;;;;;;6110265;23;20400;-78
2023/01/31 13:20:00;;;;;;;1.77;1.67;;;12.30;42.80;;;;;;6112570;23;20379;-77
2023/01/31 13:22:44;;;;;;;1.45;1.35;;;12.50;42.10;;;;;;6113624;23;20465;-77
2023/01/31 13:25:39;;;;;;;1.57;1.47;;;12.80;41.30;;;;;;6133915;23;20391;-78
2023/01/31 13:28:20;;;;;;;1.50;1.40;;;13.00;40.90;;;;;;6134082;23;20439;-77
2023/01/31 13:31:13;;;;;;;1.90;1.45;;;13.00;40.50;;;;;;6107459;23;20424;-77
2023/01/31 13:33:54;;;;;;;1.70;1.60;;;13.10;39.50;;;;;;6083112;23;20742;-77
2023/01/31 13:37:10;;;;;;;1.77;1.67;;;13.30;39.70;;;;;;6130194;23;20360;-78
2023/01/31 13:39:56;;;;;;;1.70;1.60;;;13.10;38.90;;;;;;6086927;23;20383;-77
2023/01/31 13:42:25;;;;;;;1.70;1.60;;;13.20;39.90;;;;;;6107804;23;20416;-78
2023/01/31 13:45:03;;;;;;;1.70;1.60;;;13.10;38.50;;;;;;6130587;23;20375;-77
2023/01/31 13:47:45;;;;;;;1.33;1.33;;;13.20;39.20;;;;;;6103649;23;20407;-77
2023/01/31 13:50:41;;;;;;;1.48;1.38;;;13.30;39.20;;;;;;6102216;23;20380;-78
2023/01/31 13:53:23;;;;;;;1.60;1.50;;;13.30;39.40;;;;;;6100372;23;20383;-77
2023/01/31 13:55:52;;;;;;;1.58;1.33;;;13.30;38.20;;;;;;6099971;23;20387;-77
2023/01/31 13:58:31;;;;;;;1.50;1.20;;;13.30;38.40;;;;;;6102468;23;20417;-77
2023/01/31 14:01:21;;;;;;;1.10;1.10;;;13.30;37.90;;;;;;6099683;23;20375;-77
2023/01/31 14:04:11;;;;;;;1.40;1.30;;;13.30;37.90;;;;;;6123943;23;20673;-78
2023/01/31 14:07:17;;;;;;;1.40;1.30;;;13.30;38.30;;;;;;6123639;23;20375;-77
2023/01/31 14:09:48;;;;;;;1.17;1.15;;;13.30;37.70;;;;;;6062216;23;20360;-78
2023/01/31 14:12:27;;;;;;;1.13;1.10;;;13.30;37.00;;;;;;6101812;23;20443;-78
2023/01/31 14:14:56;;;;;;;1.10;1.00;;;13.30;37.80;;;;;;6089749;23;20384;-77
2023/01/31 14:17:36;;;;;;;1.40;1.30;;;13.30;38.40;;;;;;6112664;23;20451;-77
2023/01/31 14:20:06;;;;;;;1.45;1.35;;;13.30;38.30;;;;;;6132608;23;20846;-77
2023/01/31 14:22:38;;;;;;;2.80;1.77;;;13.30;39.20;;;;;;6100081;23;20380;-77
2023/01/31 14:25:35;;;;;;;1.40;1.30;;;13.40;40.20;;;;;;6099381;23;20376;-77